createdAt,value
2022-12-12T00:00:19.112Z,11.70
2022-12-12T00:03:07.052Z,11.70
2022-12-12T00:05:59.263Z,11.70
2022-12-12T00:08:47.148Z,11.70
2022-12-12T00:11:36.688Z,11.80
2022-12-12T00:14:26.484Z,11.70
2022-12-12T00:17:14.806Z,11.70
2022-12-12T00:20:02.330Z,11.70
2022-12-12T00:22:50.249Z,11.70
2022-12-12T00:25:39.293Z,11.70
2022-12-12T00:28:29.129Z,11.70
2022-12-12T00:31:17.489Z,11.70
2022-12-12T00:34:06.321Z,11.70
2022-12-12T00:36:54.017Z,11.70
2022-12-12T00:39:43.091Z,11.70
2022-12-12T00:42:31.939Z,11.70
2022-12-12T00:45:21.056Z,11.70
2022-12-12T00:48:09.199Z,11.70
2022-12-12T00:50:57.970Z,11.70
2022-12-12T00:53:45.538Z,11.60
2022-12-12T00:56:33.368Z,11.60
2022-12-12T00:59:24.202Z,11.70
2022-12-12T01:02:14.326Z,11.70
2022-12-12T01:05:05.885Z,11.70
2022-12-12T01:07:54.242Z,11.60
2022-12-12T01:10:41.973Z,11.70
2022-12-12T01:13:30.349Z,11.70
2022-12-12T01:16:18.274Z,11.70
2022-12-12T01:19:07.514Z,11.60
2022-12-12T01:21:56.046Z,11.60
2022-12-12T01:24:44.887Z,11.70
2022-12-12T01:27:32.573Z,11.60
2022-12-12T01:30:24.038Z,11.60
2022-12-12T01:33:11.804Z,11.60
2022-12-12T01:36:00.959Z,11.60
2022-12-12T01:38:50.181Z,11.60
2022-12-12T01:41:38.107Z,11.60
2022-12-12T01:44:46.589Z,11.60
2022-12-12T01:47:34.235Z,11.60
2022-12-12T01:50:22.490Z,11.60
2022-12-12T01:53:12.909Z,11.60
2022-12-12T01:56:03.487Z,11.50
2022-12-12T01:58:54.127Z,11.50
2022-12-12T02:01:42.722Z,11.60
2022-12-12T02:04:30.605Z,11.50
2022-12-12T02:07:18.858Z,11.50
2022-12-12T02:10:11.698Z,11.50
2022-12-12T02:13:03.890Z,11.50
2022-12-12T02:16:05.256Z,11.50
2022-12-12T02:18:59.167Z,11.50
2022-12-12T02:21:53.828Z,11.50
2022-12-12T02:25:09.306Z,11.60
2022-12-12T02:28:27.990Z,11.50
2022-12-12T02:31:23.787Z,11.60
2022-12-12T02:34:20.392Z,11.60
2022-12-12T02:37:17.019Z,11.60
2022-12-12T02:40:15.260Z,11.60
2022-12-12T02:43:13.036Z,11.60
2022-12-12T02:46:06.581Z,11.60
2022-12-12T02:49:03.121Z,11.60
2022-12-12T02:51:52.664Z,11.60
2022-12-12T02:54:41.095Z,11.60
2022-12-12T02:57:29.477Z,11.60
2022-12-12T03:00:21.763Z,11.60
2022-12-12T03:03:50.057Z,11.60
2022-12-12T03:07:14.420Z,11.70
2022-12-12T03:10:10.475Z,11.70
2022-12-12T03:13:05.554Z,11.70
2022-12-12T03:16:04.343Z,11.70
2022-12-12T03:19:00.495Z,11.70
2022-12-12T03:21:54.276Z,11.70
2022-12-12T03:24:50.153Z,11.70
2022-12-12T03:27:43.578Z,11.70
2022-12-12T03:30:38.778Z,11.70
2022-12-12T03:33:31.706Z,11.70
2022-12-12T03:36:23.315Z,11.70
2022-12-12T03:39:19.501Z,11.70
2022-12-12T03:42:12.567Z,11.70
2022-12-12T03:45:04.501Z,11.70
2022-12-12T03:47:55.948Z,11.70
2022-12-12T03:50:49.587Z,11.70
2022-12-12T03:53:45.408Z,11.70
2022-12-12T03:56:42.334Z,11.70
2022-12-12T03:59:35.840Z,11.70
2022-12-12T04:02:28.938Z,11.70
2022-12-12T04:05:22.450Z,11.70
2022-12-12T04:08:14.936Z,11.70
2022-12-12T04:11:26.221Z,11.70
2022-12-12T04:14:28.688Z,11.70
2022-12-12T04:17:19.713Z,11.60
2022-12-12T04:20:38.060Z,11.60
2022-12-12T04:23:35.983Z,11.60
2022-12-12T04:26:43.366Z,11.60
2022-12-12T04:29:40.535Z,11.60
2022-12-12T04:32:34.045Z,11.60
2022-12-12T04:35:30.336Z,11.60
2022-12-12T04:38:22.047Z,11.60
2022-12-12T04:41:12.160Z,11.70
2022-12-12T04:44:03.316Z,11.60
2022-12-12T04:46:55.999Z,11.60
2022-12-12T04:49:47.127Z,11.60
2022-12-12T04:52:36.441Z,11.70
2022-12-12T04:55:30.387Z,11.60
2022-12-12T04:58:18.279Z,11.60
2022-12-12T05:01:11.531Z,11.60
2022-12-12T05:04:05.286Z,11.60
2022-12-12T05:06:59.429Z,11.60
2022-12-12T05:09:47.374Z,11.60
2022-12-12T05:12:42.708Z,11.60
2022-12-12T05:15:31.335Z,11.60
2022-12-12T05:18:19.377Z,11.60
2022-12-12T05:21:08.661Z,11.60
2022-12-12T05:23:56.073Z,11.60
2022-12-12T05:26:43.824Z,11.60
2022-12-12T05:29:32.133Z,11.60
2022-12-12T05:32:19.967Z,11.50
2022-12-12T05:35:10.432Z,11.50
2022-12-12T05:37:59.570Z,11.60
2022-12-12T05:40:47.030Z,11.50
2022-12-12T05:43:34.941Z,11.50
2022-12-12T05:46:22.995Z,11.50
2022-12-12T05:49:10.617Z,11.50
2022-12-12T05:51:58.313Z,11.60
2022-12-12T05:54:47.614Z,11.50
2022-12-12T05:57:35.384Z,11.50
2022-12-12T06:00:23.389Z,11.50
2022-12-12T06:03:10.859Z,11.50
2022-12-12T06:05:58.350Z,11.50
2022-12-12T06:08:46.135Z,11.50
2022-12-12T06:11:35.362Z,11.50
2022-12-12T06:14:22.863Z,11.50
2022-12-12T06:17:10.558Z,11.50
2022-12-12T06:19:58.488Z,11.50
2022-12-12T06:22:52.013Z,11.50
2022-12-12T06:25:41.562Z,11.50
2022-12-12T06:28:30.526Z,11.50
2022-12-12T06:31:18.593Z,11.50
2022-12-12T06:34:07.707Z,11.50
2022-12-12T06:36:55.521Z,11.50
2022-12-12T06:39:43.165Z,11.50
2022-12-12T06:42:30.922Z,11.50
2022-12-12T06:45:20.508Z,11.50
2022-12-12T06:48:08.628Z,11.50
2022-12-12T06:50:56.405Z,11.40
2022-12-12T06:53:44.151Z,11.50
2022-12-12T06:56:32.274Z,11.50
2022-12-12T06:59:22.134Z,11.40
2022-12-12T07:02:13.586Z,11.40
2022-12-12T07:04:42.607Z,11.50
2022-12-12T07:07:11.592Z,11.50
2022-12-12T07:09:40.725Z,11.40
2022-12-12T07:12:09.997Z,11.50
2022-12-12T07:14:40.853Z,11.50
2022-12-12T07:17:11.336Z,11.50
2022-12-12T07:19:40.419Z,11.50
2022-12-12T07:22:10.675Z,11.50
2022-12-12T07:24:40.319Z,11.50
2022-12-12T07:27:09.645Z,11.50
2022-12-12T07:29:38.690Z,11.60
2022-12-12T07:32:08.000Z,11.60
2022-12-12T07:34:38.882Z,11.60
2022-12-12T07:37:08.058Z,11.60
2022-12-12T07:39:37.373Z,11.60
2022-12-12T07:42:06.873Z,11.60
2022-12-12T07:44:38.176Z,11.60
2022-12-12T07:47:07.694Z,11.70
2022-12-12T07:49:39.193Z,11.60
2022-12-12T07:52:08.596Z,11.60
2022-12-12T07:54:37.749Z,11.60
2022-12-12T07:57:08.154Z,11.60
2022-12-12T07:59:37.518Z,11.60
2022-12-12T08:02:08.134Z,11.60
2022-12-12T08:04:39.275Z,11.60
2022-12-12T08:07:08.845Z,11.60
2022-12-12T08:09:38.348Z,11.60
2022-12-12T08:12:08.117Z,11.60
2022-12-12T08:14:38.476Z,11.60
2022-12-12T08:17:09.801Z,11.60
2022-12-12T08:19:40.550Z,11.60
2022-12-12T08:22:09.888Z,11.60
2022-12-12T08:24:39.189Z,11.70
2022-12-12T08:27:13.772Z,11.60
2022-12-12T08:29:45.192Z,11.70
2022-12-12T08:32:14.409Z,11.60
2022-12-12T08:34:44.879Z,11.60
2022-12-12T08:37:13.949Z,11.60
2022-12-12T08:39:43.194Z,11.70
2022-12-12T08:42:13.325Z,11.70
2022-12-12T08:44:42.406Z,11.70
2022-12-12T08:47:11.487Z,11.70
2022-12-12T08:49:40.553Z,11.70
2022-12-12T08:52:11.075Z,11.70
2022-12-12T08:54:40.252Z,11.70
2022-12-12T08:57:09.368Z,11.70
2022-12-12T08:59:38.316Z,11.70
2022-12-12T09:02:07.831Z,11.70
2022-12-12T09:04:36.938Z,11.80
2022-12-12T09:07:08.599Z,11.80
2022-12-12T09:09:39.487Z,11.80
2022-12-12T09:12:09.645Z,11.80
2022-12-12T09:14:39.033Z,11.80
2022-12-12T09:17:08.144Z,11.80
2022-12-12T09:19:37.347Z,11.80
2022-12-12T09:22:06.694Z,11.90
2022-12-12T09:24:36.177Z,11.80
2022-12-12T09:27:07.030Z,11.90
2022-12-12T09:29:36.467Z,11.90
2022-12-12T09:32:06.794Z,11.90
2022-12-12T09:34:39.163Z,11.90
2022-12-12T09:37:08.424Z,11.90
2022-12-12T09:39:38.041Z,11.90
2022-12-12T09:42:23.260Z,11.90
2022-12-12T09:44:57.411Z,11.90
2022-12-12T09:47:36.969Z,11.90
2022-12-12T09:50:16.362Z,11.90
2022-12-12T09:52:46.639Z,11.90
2022-12-12T09:55:37.513Z,11.90
2022-12-12T09:58:19.394Z,11.90
2022-12-12T10:00:54.050Z,12.00
2022-12-12T10:03:33.564Z,12.00
2022-12-12T10:06:36.103Z,12.00
2022-12-12T10:09:13.806Z,12.00
2022-12-12T10:11:54.477Z,12.00
2022-12-12T10:14:38.285Z,12.00
2022-12-12T10:17:13.507Z,12.00
2022-12-12T10:19:50.905Z,12.00
2022-12-12T10:22:29.770Z,12.10
2022-12-12T10:25:08.031Z,12.10
2022-12-12T10:27:37.487Z,12.10
2022-12-12T10:30:18.815Z,12.10
2022-12-12T10:33:11.614Z,12.10
2022-12-12T10:35:52.835Z,12.10
2022-12-12T10:38:47.797Z,12.10
2022-12-12T10:41:27.179Z,12.10
2022-12-12T10:44:07.086Z,12.10
2022-12-12T10:46:44.237Z,12.10
2022-12-12T10:49:18.508Z,12.10
2022-12-12T10:51:50.345Z,12.10
2022-12-12T10:54:22.124Z,12.10
2022-12-12T10:57:20.111Z,12.10
2022-12-12T10:59:52.824Z,12.10
2022-12-12T11:02:38.448Z,12.20
2022-12-12T11:05:18.607Z,12.20
2022-12-12T11:07:51.744Z,12.20
2022-12-12T11:10:30.562Z,12.20
2022-12-12T11:13:16.247Z,12.20
2022-12-12T11:15:54.223Z,12.20
2022-12-12T11:18:26.408Z,12.20
2022-12-12T11:21:07.145Z,12.20
2022-12-12T11:23:40.465Z,12.20
2022-12-12T11:26:15.960Z,12.20
2022-12-12T11:28:48.639Z,12.20
2022-12-12T11:31:18.612Z,12.20
2022-12-12T11:33:54.754Z,12.30
2022-12-12T11:36:31.415Z,12.30
2022-12-12T11:39:13.459Z,12.30
2022-12-12T11:42:02.736Z,12.30
2022-12-12T11:44:38.468Z,12.30
2022-12-12T11:47:25.931Z,12.30
2022-12-12T11:49:59.401Z,12.30
2022-12-12T11:52:32.521Z,12.40
2022-12-12T11:55:05.940Z,12.40
2022-12-12T11:58:09.878Z,12.40
2022-12-12T12:00:47.271Z,12.40
2022-12-12T12:03:29.002Z,12.40
2022-12-12T12:06:27.896Z,12.40
2022-12-12T12:09:24.154Z,12.40
2022-12-12T12:12:03.735Z,12.40
2022-12-12T12:15:09.103Z,12.40
2022-12-12T12:18:01.144Z,12.40
2022-12-12T12:20:51.632Z,12.40
2022-12-12T12:23:30.678Z,12.40
2022-12-12T12:26:05.127Z,12.40
2022-12-12T12:29:04.286Z,12.40
2022-12-12T12:31:45.088Z,12.40
2022-12-12T12:34:23.869Z,12.40
2022-12-12T12:37:12.616Z,12.40
2022-12-12T12:40:07.332Z,12.40
2022-12-12T12:43:07.709Z,12.40
2022-12-12T12:45:46.758Z,12.40
2022-12-12T12:48:24.217Z,12.40
2022-12-12T12:51:03.890Z,12.40
2022-12-12T12:53:40.237Z,12.40
2022-12-12T12:56:26.528Z,12.40
2022-12-12T12:58:59.837Z,12.30
2022-12-12T13:01:37.405Z,12.40
2022-12-12T13:04:15.641Z,12.30
2022-12-12T13:06:51.003Z,12.30
2022-12-12T13:09:34.416Z,12.30
2022-12-12T13:12:14.568Z,12.30
2022-12-12T13:14:52.180Z,12.30
2022-12-12T13:17:35.527Z,12.30
2022-12-12T13:20:06.640Z,12.20
2022-12-12T13:23:12.202Z,12.20
2022-12-12T13:25:49.274Z,12.20
2022-12-12T13:28:24.426Z,12.20
2022-12-12T13:31:23.233Z,12.20
2022-12-12T13:33:57.873Z,12.20
2022-12-12T13:36:30.496Z,12.20
2022-12-12T13:39:01.556Z,12.20
2022-12-12T13:42:02.620Z,12.20
2022-12-12T13:44:41.143Z,12.20
2022-12-12T13:47:44.640Z,12.20
2022-12-12T13:50:22.835Z,12.20
2022-12-12T13:53:18.943Z,12.20
2022-12-12T13:55:48.271Z,12.20
2022-12-12T13:58:35.798Z,12.20
2022-12-12T14:01:40.835Z,12.20
2022-12-12T14:04:28.011Z,12.20
2022-12-12T14:07:04.665Z,12.20
2022-12-12T14:09:48.349Z,12.20
2022-12-12T14:12:27.486Z,12.20
2022-12-12T14:15:01.694Z,12.20
2022-12-12T14:17:42.094Z,12.20
2022-12-12T14:20:28.683Z,12.20
2022-12-12T14:23:26.085Z,12.20
2022-12-12T14:25:56.114Z,12.20
2022-12-12T14:28:28.410Z,12.20
2022-12-12T14:31:13.406Z,12.20
2022-12-12T14:34:09.644Z,12.10
2022-12-12T14:37:16.844Z,12.10
2022-12-12T14:40:19.855Z,12.10
2022-12-12T14:43:19.248Z,12.10
2022-12-12T14:45:57.151Z,12.10
2022-12-12T14:48:29.657Z,12.10
2022-12-12T14:51:06.858Z,12.10
2022-12-12T14:53:52.912Z,12.10
2022-12-12T14:56:28.829Z,12.10
2022-12-12T14:59:04.739Z,12.10
2022-12-12T15:01:37.298Z,12.10
2022-12-12T15:04:09.587Z,12.10
2022-12-12T15:06:41.263Z,12.10
2022-12-12T15:09:24.689Z,12.10
2022-12-12T15:11:56.179Z,12.10
2022-12-12T15:14:28.122Z,12.10
2022-12-12T15:17:03.557Z,12.10
2022-12-12T15:19:37.421Z,12.10
2022-12-12T15:22:17.230Z,12.10
2022-12-12T15:24:46.392Z,12.10
2022-12-12T15:27:21.813Z,12.00
2022-12-12T15:29:52.472Z,12.10
2022-12-12T15:32:24.968Z,12.10
2022-12-12T15:35:04.347Z,12.10
2022-12-12T15:37:36.575Z,12.10
2022-12-12T15:40:25.153Z,12.10
2022-12-12T15:43:00.447Z,12.10
2022-12-12T15:45:34.988Z,12.10
2022-12-12T15:48:05.728Z,12.10
2022-12-12T15:50:52.157Z,12.10
2022-12-12T15:53:24.991Z,12.10
2022-12-12T15:56:01.081Z,12.10
2022-12-12T15:58:32.950Z,12.10
2022-12-12T16:01:20.120Z,12.10
2022-12-12T16:04:02.711Z,12.10
2022-12-12T16:06:34.753Z,12.10
2022-12-12T16:09:18.681Z,12.10
2022-12-12T16:11:49.522Z,12.10
2022-12-12T16:14:39.027Z,12.10
2022-12-12T16:17:13.307Z,12.10
2022-12-12T16:19:50.453Z,12.10
2022-12-12T16:22:34.477Z,12.10
2022-12-12T16:25:22.473Z,12.10
2022-12-12T16:28:00.400Z,12.10
2022-12-12T16:30:30.202Z,12.00
2022-12-12T16:32:59.264Z,12.00
2022-12-12T16:35:28.463Z,12.00
2022-12-12T16:37:57.632Z,12.00
2022-12-12T16:40:29.667Z,12.00
2022-12-12T16:43:10.722Z,12.00
2022-12-12T16:45:40.588Z,12.00
2022-12-12T16:48:16.131Z,12.00
2022-12-12T16:50:46.290Z,12.00
2022-12-12T16:53:15.665Z,11.90
2022-12-12T16:55:49.190Z,12.00
2022-12-12T16:58:21.300Z,11.90
2022-12-12T17:00:52.964Z,12.00
2022-12-12T17:03:24.952Z,12.00
2022-12-12T17:05:54.616Z,12.00
2022-12-12T17:08:24.120Z,12.00
2022-12-12T17:11:10.523Z,12.00
2022-12-12T17:13:45.896Z,11.90
2022-12-12T17:16:15.432Z,11.90
2022-12-12T17:18:46.078Z,11.90
2022-12-12T17:21:15.436Z,11.90
2022-12-12T17:23:45.172Z,11.90
2022-12-12T17:26:16.634Z,11.90
2022-12-12T17:28:45.764Z,11.90
2022-12-12T17:31:17.003Z,11.90
2022-12-12T17:33:51.078Z,11.90
2022-12-12T17:36:21.088Z,11.90
2022-12-12T17:38:53.749Z,11.80
2022-12-12T17:41:24.410Z,11.90
2022-12-12T17:43:58.250Z,11.90
2022-12-12T17:46:36.451Z,11.80
2022-12-12T17:49:05.574Z,11.80
2022-12-12T17:51:34.867Z,11.80
2022-12-12T17:54:04.068Z,11.90
2022-12-12T17:56:35.831Z,11.80
2022-12-12T17:59:09.692Z,11.80
2022-12-12T18:01:40.992Z,11.80
2022-12-12T18:04:10.377Z,11.90
2022-12-12T18:07:05.519Z,11.80
2022-12-12T18:09:38.922Z,11.80
2022-12-12T18:12:09.858Z,11.90
2022-12-12T18:14:41.974Z,11.90
2022-12-12T18:17:11.373Z,11.90
2022-12-12T18:19:41.142Z,11.90
2022-12-12T18:22:11.029Z,11.90
2022-12-12T18:24:40.524Z,11.90
2022-12-12T18:27:11.223Z,11.90
2022-12-12T18:29:40.460Z,11.90
2022-12-12T18:32:09.709Z,11.90
2022-12-12T18:34:42.383Z,11.90
2022-12-12T18:37:13.596Z,11.90
2022-12-12T18:39:43.050Z,11.90
2022-12-12T18:42:13.760Z,11.90
2022-12-12T18:44:46.078Z,11.90
2022-12-12T18:47:15.186Z,11.90
2022-12-12T18:49:44.598Z,11.90
2022-12-12T18:52:13.842Z,11.90
2022-12-12T18:54:43.252Z,11.90
2022-12-12T18:57:18.231Z,11.80
2022-12-12T18:59:47.501Z,11.90
2022-12-12T19:02:16.818Z,11.80
2022-12-12T19:04:47.883Z,11.90
2022-12-12T19:07:20.550Z,11.80
2022-12-12T19:09:49.790Z,11.80
2022-12-12T19:12:20.395Z,11.80
2022-12-12T19:15:15.790Z,11.80
2022-12-12T19:17:38.743Z,11.80
2022-12-12T19:20:09.360Z,11.80
2022-12-12T19:22:46.647Z,11.80
2022-12-12T19:25:17.368Z,11.80
2022-12-12T19:27:48.022Z,11.80
2022-12-12T19:30:18.107Z,11.70
2022-12-12T19:32:49.196Z,11.70
2022-12-12T19:35:18.781Z,11.70
2022-12-12T19:37:48.090Z,11.70
2022-12-12T19:40:17.875Z,11.70
2022-12-12T19:42:48.611Z,11.60
2022-12-12T19:45:18.208Z,11.60
2022-12-12T19:47:47.447Z,11.60
2022-12-12T19:50:17.029Z,11.60
2022-12-12T19:52:46.737Z,11.60
2022-12-12T19:55:16.709Z,11.60
2022-12-12T19:57:47.632Z,11.60
2022-12-12T20:00:20.054Z,11.50
2022-12-12T20:02:49.275Z,11.60
2022-12-12T20:05:19.619Z,11.50
2022-12-12T20:07:48.872Z,11.50
2022-12-12T20:10:18.341Z,11.50
2022-12-12T20:12:58.457Z,11.40
2022-12-12T20:15:29.054Z,11.40
2022-12-12T20:18:00.609Z,11.40
2022-12-12T20:20:32.977Z,11.40
2022-12-12T20:23:02.145Z,11.40
2022-12-12T20:25:31.584Z,11.30
2022-12-12T20:28:02.621Z,11.30
2022-12-12T20:30:31.841Z,11.30
2022-12-12T20:33:01.164Z,11.30
2022-12-12T20:35:30.674Z,11.30
2022-12-12T20:37:59.802Z,11.30
2022-12-12T20:40:29.760Z,11.30
2022-12-12T20:43:03.432Z,11.30
2022-12-12T20:45:39.423Z,11.30
2022-12-12T20:48:08.718Z,11.30
2022-12-12T20:50:38.013Z,11.20
2022-12-12T20:53:07.450Z,11.20
2022-12-12T20:55:37.114Z,11.20
2022-12-12T20:58:06.666Z,11.20
2022-12-12T21:00:39.705Z,11.20
2022-12-12T21:03:37.615Z,11.20
2022-12-12T21:06:34.768Z,11.20
2022-12-12T21:09:26.441Z,11.20
2022-12-12T21:12:15.602Z,11.10
2022-12-12T21:15:03.418Z,11.10
2022-12-12T21:17:53.647Z,11.10
2022-12-12T21:20:45.888Z,11.10
2022-12-12T21:23:34.993Z,11.10
2022-12-12T21:26:28.885Z,11.10
2022-12-12T21:29:17.406Z,11.10
2022-12-12T21:32:07.051Z,11.00
2022-12-12T21:34:56.369Z,11.00
2022-12-12T21:37:50.632Z,11.00
2022-12-12T21:40:38.764Z,11.00
2022-12-12T21:43:26.472Z,11.00
2022-12-12T21:46:16.708Z,11.00
2022-12-12T21:49:22.126Z,11.00
2022-12-12T21:52:12.243Z,11.00
2022-12-12T21:54:59.806Z,10.90
2022-12-12T21:57:47.462Z,10.90
2022-12-12T22:00:39.961Z,10.90
2022-12-12T22:03:31.032Z,10.80
2022-12-12T22:06:21.284Z,10.80
2022-12-12T22:09:12.500Z,10.80
2022-12-12T22:12:03.281Z,10.80
2022-12-12T22:14:52.573Z,10.80
2022-12-12T22:17:46.755Z,10.80
2022-12-12T22:20:36.398Z,10.80
2022-12-12T22:23:24.513Z,10.80
2022-12-12T22:26:18.223Z,10.80
2022-12-12T22:29:08.216Z,10.80
2022-12-12T22:31:56.077Z,10.70
2022-12-12T22:34:43.657Z,10.70
2022-12-12T22:37:31.563Z,10.70
2022-12-12T22:40:19.268Z,10.70
2022-12-12T22:43:08.479Z,10.70
2022-12-12T22:45:56.388Z,10.70
2022-12-12T22:48:44.086Z,10.60
2022-12-12T22:51:34.146Z,10.60
2022-12-12T22:54:21.687Z,10.60
2022-12-12T22:57:09.167Z,10.60
2022-12-12T22:59:58.415Z,10.60
2022-12-12T23:02:46.176Z,10.60
2022-12-12T23:05:34.128Z,10.60
2022-12-12T23:08:21.814Z,10.60
2022-12-12T23:11:16.372Z,10.50
2022-12-12T23:14:06.516Z,10.60
2022-12-12T23:16:56.421Z,10.50
2022-12-12T23:19:43.834Z,10.50
2022-12-12T23:22:33.463Z,10.50
2022-12-12T23:25:20.936Z,10.50
2022-12-12T23:28:13.773Z,10.40
2022-12-12T23:31:02.080Z,10.40
2022-12-12T23:33:54.950Z,10.40
2022-12-12T23:36:42.533Z,10.40
2022-12-12T23:39:30.398Z,10.30
2022-12-12T23:42:18.148Z,10.30
2022-12-12T23:45:07.126Z,10.30
2022-12-12T23:47:54.740Z,10.30
2022-12-12T23:50:44.017Z,10.20
2022-12-12T23:53:34.512Z,10.30
2022-12-12T23:56:22.179Z,10.20
2022-12-12T23:59:16.882Z,10.20
